Little Falls, Wisconsin
Current Conditions -  °F | °C
As of 4:15 AM on Thursday 23 Oct 2014 (Local Time) from KOEO Reporting Station
Drizzle Drizzle  
Wind Chill: 47°   Ceiling: 1800
Heat Index: 49°   Visibility: 7mi
Dew Point: 49°   Wind: 6mph
Humidity: 100%   Direction: 160°SSE
Pressure: 30.03"   Gusts: NA
Location:  45.3559°N, 92.3527°W
Report Text: KOEO 230915Z AUTO 16005KT 7SM DZ OVC018 10/10 A3003 RMK AO2 T00950095
Loading
Personal Weather Stations






























Interactive Weather Map
Tropical Storm Tracking
New forecast layout! Learn more

10-Day Weather Forecast

Advertisements
Track Severe Weather on mobile